createdAt,value
2022-12-05T00:00:10.098Z,100.00
2022-12-05T00:01:31.412Z,100.00
2022-12-05T00:02:33.187Z,100.00
2022-12-05T00:03:34.805Z,100.00
2022-12-05T00:04:39.404Z,100.00
2022-12-05T00:05:41.474Z,100.00
2022-12-05T00:06:44.017Z,100.00
2022-12-05T00:07:45.710Z,100.00
2022-12-05T00:08:48.557Z,100.00
2022-12-05T00:09:51.108Z,100.00
2022-12-05T00:10:55.656Z,100.00
2022-12-05T00:11:57.876Z,100.00
2022-12-05T00:12:59.634Z,100.00
2022-12-05T00:14:03.097Z,100.00
2022-12-05T00:15:05.613Z,100.00
2022-12-05T00:16:12.128Z,100.00
2022-12-05T00:17:13.950Z,100.00
2022-12-05T00:18:18.572Z,100.00
2022-12-05T00:19:20.228Z,100.00
2022-12-05T00:20:21.926Z,100.00
2022-12-05T00:21:25.866Z,100.00
2022-12-05T00:22:27.544Z,100.00
2022-12-05T00:23:29.265Z,100.00
2022-12-05T00:24:31.005Z,100.00
2022-12-05T00:25:32.608Z,100.00
2022-12-05T00:26:34.992Z,100.00
2022-12-05T00:27:36.636Z,100.00
2022-12-05T00:28:39.341Z,100.00
2022-12-05T00:29:41.931Z,100.00
2022-12-05T00:30:43.439Z,100.00
2022-12-05T00:31:45.184Z,100.00
2022-12-05T00:32:47.352Z,100.00
2022-12-05T00:33:49.812Z,100.00
2022-12-05T00:34:51.481Z,100.00
2022-12-05T00:35:53.187Z,100.00
2022-12-05T00:36:54.902Z,100.00
2022-12-05T00:37:56.545Z,100.00
2022-12-05T00:39:06.038Z,100.00
2022-12-05T00:40:08.196Z,100.00
2022-12-05T00:41:16.199Z,100.00
2022-12-05T00:42:18.147Z,100.00
2022-12-05T00:43:19.761Z,100.00
2022-12-05T00:44:21.683Z,100.00
2022-12-05T00:45:23.395Z,100.00
2022-12-05T00:46:26.822Z,100.00
2022-12-05T00:47:28.601Z,100.00
2022-12-05T00:48:30.806Z,100.00
2022-12-05T00:49:32.561Z,100.00
2022-12-05T00:50:34.395Z,100.00
2022-12-05T00:51:39.571Z,100.00
2022-12-05T00:52:41.412Z,100.00
2022-12-05T00:53:43.896Z,100.00
2022-12-05T00:54:45.498Z,100.00
2022-12-05T00:55:48.344Z,100.00
2022-12-05T00:56:52.667Z,100.00
2022-12-05T00:57:54.342Z,100.00
2022-12-05T00:58:57.390Z,100.00
2022-12-05T00:59:59.518Z,100.00
2022-12-05T01:01:10.114Z,100.00
2022-12-05T01:02:11.828Z,100.00
2022-12-05T01:03:14.635Z,100.00
2022-12-05T01:04:21.804Z,100.00
2022-12-05T01:05:23.418Z,100.00
2022-12-05T01:06:26.159Z,100.00
2022-12-05T01:07:27.847Z,100.00
2022-12-05T01:08:30.100Z,100.00
2022-12-05T01:09:32.002Z,100.00
2022-12-05T01:10:34.061Z,100.00
2022-12-05T01:11:40.936Z,100.00
2022-12-05T01:12:43.036Z,100.00
2022-12-05T01:13:45.258Z,100.00
2022-12-05T01:14:47.443Z,100.00
2022-12-05T01:15:49.266Z,100.00
2022-12-05T01:16:52.962Z,100.00
2022-12-05T01:17:54.549Z,100.00
2022-12-05T01:18:59.160Z,100.00
2022-12-05T01:20:00.847Z,100.00
2022-12-05T01:21:05.549Z,100.00
2022-12-05T01:22:07.231Z,100.00
2022-12-05T01:23:09.945Z,100.00
2022-12-05T01:24:12.267Z,100.00
2022-12-05T01:25:14.014Z,100.00
2022-12-05T01:26:18.734Z,100.00
2022-12-05T01:27:20.555Z,100.00
2022-12-05T01:28:22.700Z,100.00
2022-12-05T01:29:25.030Z,100.00
2022-12-05T01:30:27.021Z,100.00
2022-12-05T01:31:32.207Z,100.00
2022-12-05T01:32:34.012Z,100.00
2022-12-05T01:33:36.195Z,100.00
2022-12-05T01:34:38.068Z,100.00
2022-12-05T01:35:40.952Z,100.00
2022-12-05T01:36:43.095Z,100.00
2022-12-05T01:37:44.762Z,100.00
2022-12-05T01:38:46.765Z,100.00
2022-12-05T01:39:49.257Z,100.00
2022-12-05T01:40:50.868Z,100.00
2022-12-05T01:41:53.017Z,100.00
2022-12-05T01:42:55.018Z,100.00
2022-12-05T01:44:01.065Z,100.00
2022-12-05T01:45:16.575Z,100.00
2022-12-05T01:46:18.313Z,100.00
2022-12-05T01:47:20.476Z,100.00
2022-12-05T01:48:28.243Z,100.00
2022-12-05T01:49:35.088Z,100.00
2022-12-05T01:50:37.290Z,100.00
2022-12-05T01:51:41.550Z,100.00
2022-12-05T01:52:43.293Z,100.00
2022-12-05T01:53:45.661Z,100.00
2022-12-05T01:54:50.825Z,100.00
2022-12-05T01:55:55.317Z,100.00
2022-12-05T01:57:02.799Z,100.00
2022-12-05T01:58:08.350Z,100.00
2022-12-05T01:59:11.718Z,100.00
2022-12-05T02:00:16.919Z,100.00
2022-12-05T02:01:19.562Z,100.00
2022-12-05T02:02:21.827Z,100.00
2022-12-05T02:03:23.600Z,100.00
2022-12-05T02:04:25.397Z,100.00
2022-12-05T02:05:34.625Z,100.00
2022-12-05T02:06:36.682Z,100.00
2022-12-05T02:07:41.543Z,100.00
2022-12-05T02:08:45.094Z,100.00
2022-12-05T02:09:50.731Z,100.00
2022-12-05T02:10:56.863Z,100.00
2022-12-05T02:12:02.185Z,100.00
2022-12-05T02:13:18.244Z,100.00
2022-12-05T02:14:29.855Z,100.00
2022-12-05T02:15:57.549Z,100.00
2022-12-05T02:17:17.325Z,100.00
2022-12-05T02:18:37.479Z,100.00
2022-12-05T02:20:09.971Z,100.00
2022-12-05T02:22:02.737Z,100.00
2022-12-05T02:23:22.856Z,100.00
2022-12-05T02:24:57.302Z,100.00
2022-12-05T02:26:29.892Z,100.00
2022-12-05T02:28:10.251Z,100.00
2022-12-05T02:29:30.079Z,100.00
2022-12-05T02:30:40.624Z,100.00
2022-12-05T02:31:59.407Z,100.00
2022-12-05T02:33:11.599Z,100.00
2022-12-05T02:34:34.573Z,100.00
2022-12-05T02:35:42.476Z,100.00
2022-12-05T02:37:13.813Z,100.00
2022-12-05T02:39:56.089Z,100.00
2022-12-05T02:41:12.768Z,100.00
2022-12-05T02:42:22.890Z,100.00
2022-12-05T02:43:37.682Z,100.00
2022-12-05T02:45:00.518Z,100.00
2022-12-05T02:46:10.207Z,100.00
2022-12-05T02:47:16.511Z,100.00
2022-12-05T02:48:19.424Z,100.00
2022-12-05T02:49:25.586Z,100.00
2022-12-05T02:50:34.611Z,100.00
2022-12-05T02:51:43.377Z,100.00
2022-12-05T02:52:49.085Z,100.00
2022-12-05T02:53:51.958Z,100.00
2022-12-05T02:54:55.844Z,100.00
2022-12-05T02:55:58.306Z,100.00
2022-12-05T02:57:03.437Z,100.00
2022-12-05T02:58:16.022Z,100.00
2022-12-05T02:59:23.104Z,100.00
2022-12-05T03:00:25.458Z,100.00
2022-12-05T03:01:30.292Z,100.00
2022-12-05T03:02:34.872Z,100.00
2022-12-05T03:03:37.354Z,100.00
2022-12-05T03:04:39.642Z,100.00
2022-12-05T03:05:45.015Z,100.00
2022-12-05T03:07:03.808Z,100.00
2022-12-05T03:08:09.895Z,100.00
2022-12-05T03:09:13.332Z,100.00
2022-12-05T03:10:19.272Z,100.00
2022-12-05T03:11:21.441Z,100.00
2022-12-05T03:12:26.733Z,100.00
2022-12-05T03:13:35.762Z,100.00
2022-12-05T03:14:46.474Z,100.00
2022-12-05T03:15:55.060Z,100.00
2022-12-05T03:17:03.075Z,100.00
2022-12-05T03:18:29.639Z,100.00
2022-12-05T03:19:49.234Z,100.00
2022-12-05T03:21:05.164Z,100.00
2022-12-05T03:22:11.314Z,100.00
2022-12-05T03:23:20.940Z,100.00
2022-12-05T03:24:23.341Z,100.00
2022-12-05T03:25:34.816Z,100.00
2022-12-05T03:26:40.596Z,100.00
2022-12-05T03:27:54.045Z,100.00
2022-12-05T03:29:06.808Z,100.00
2022-12-05T03:30:22.848Z,100.00
2022-12-05T03:31:49.420Z,100.00
2022-12-05T03:33:10.602Z,100.00
2022-12-05T03:34:40.333Z,100.00
2022-12-05T03:35:44.913Z,100.00
2022-12-05T03:36:51.667Z,100.00
2022-12-05T03:37:59.944Z,100.00
2022-12-05T03:39:10.527Z,100.00
2022-12-05T03:40:21.294Z,100.00
2022-12-05T03:41:38.345Z,100.00
2022-12-05T03:42:47.506Z,100.00
2022-12-05T03:44:01.486Z,100.00
2022-12-05T03:45:10.691Z,100.00
2022-12-05T03:46:27.409Z,100.00
2022-12-05T03:47:29.094Z,100.00
2022-12-05T03:48:34.671Z,100.00
2022-12-05T03:49:50.277Z,100.00
2022-12-05T03:50:53.975Z,100.00
2022-12-05T03:52:02.962Z,100.00
2022-12-05T03:53:19.944Z,100.00
2022-12-05T03:54:29.616Z,100.00
2022-12-05T03:55:35.581Z,100.00
2022-12-05T03:56:43.121Z,100.00
2022-12-05T03:57:55.263Z,100.00
2022-12-05T03:59:05.886Z,100.00
2022-12-05T04:00:14.835Z,100.00
2022-12-05T04:01:21.159Z,100.00
2022-12-05T04:03:02.139Z,100.00
2022-12-05T04:04:10.685Z,100.00
2022-12-05T04:05:27.398Z,100.00
2022-12-05T04:06:33.747Z,100.00
2022-12-05T04:07:39.775Z,100.00
2022-12-05T04:08:51.543Z,100.00
2022-12-05T04:09:58.842Z,100.00
2022-12-05T04:11:05.291Z,100.00
2022-12-05T04:12:17.342Z,100.00
2022-12-05T04:13:26.462Z,100.00
2022-12-05T04:14:42.454Z,100.00
2022-12-05T04:16:22.801Z,100.00
2022-12-05T04:17:38.661Z,100.00
2022-12-05T04:18:46.907Z,100.00
2022-12-05T04:20:12.865Z,100.00
2022-12-05T04:21:36.683Z,100.00
2022-12-05T04:22:39.705Z,100.00
2022-12-05T04:23:47.577Z,100.00
2022-12-05T04:25:10.633Z,100.00
2022-12-05T04:26:28.678Z,100.00
2022-12-05T04:28:05.062Z,100.00
2022-12-05T04:29:19.363Z,100.00
2022-12-05T04:30:30.008Z,100.00
2022-12-05T04:31:40.956Z,100.00
2022-12-05T04:32:57.520Z,100.00
2022-12-05T04:34:05.709Z,100.00
2022-12-05T04:35:15.336Z,100.00
2022-12-05T04:36:25.714Z,100.00
2022-12-05T04:37:35.670Z,100.00
2022-12-05T04:38:46.630Z,100.00
2022-12-05T04:39:59.061Z,100.00
2022-12-05T04:41:03.374Z,100.00
2022-12-05T04:42:09.727Z,100.00
2022-12-05T04:43:14.349Z,100.00
2022-12-05T04:44:20.015Z,100.00
2022-12-05T04:45:24.678Z,100.00
2022-12-05T04:46:26.463Z,100.00
2022-12-05T04:47:38.142Z,100.00
2022-12-05T04:48:42.751Z,100.00
2022-12-05T04:49:49.319Z,100.00
2022-12-05T04:50:57.268Z,100.00
2022-12-05T04:52:04.116Z,100.00
2022-12-05T04:53:09.088Z,100.00
2022-12-05T04:54:25.324Z,100.00
2022-12-05T04:55:28.243Z,100.00
2022-12-05T04:56:34.237Z,100.00
2022-12-05T04:57:45.416Z,100.00
2022-12-05T04:58:47.757Z,100.00
2022-12-05T04:59:49.930Z,100.00
2022-12-05T05:01:15.199Z,100.00
2022-12-05T05:02:22.146Z,100.00
2022-12-05T05:03:50.164Z,100.00
2022-12-05T05:04:57.923Z,100.00
2022-12-05T05:06:00.050Z,100.00
2022-12-05T05:07:09.556Z,100.00
2022-12-05T05:08:25.775Z,100.00
2022-12-05T05:09:27.584Z,100.00
2022-12-05T05:10:45.559Z,100.00
2022-12-05T05:11:47.559Z,100.00
2022-12-05T05:12:50.391Z,100.00
2022-12-05T05:13:52.863Z,100.00
2022-12-05T05:14:54.579Z,100.00
2022-12-05T05:15:56.716Z,100.00
2022-12-05T05:16:58.677Z,100.00
2022-12-05T05:18:00.402Z,100.00
2022-12-05T05:19:02.243Z,100.00
2022-12-05T05:20:24.271Z,100.00
2022-12-05T05:21:32.718Z,100.00
2022-12-05T05:22:35.237Z,100.00
2022-12-05T05:23:37.651Z,100.00
2022-12-05T05:24:44.311Z,100.00
2022-12-05T05:25:48.635Z,100.00
2022-12-05T05:26:56.905Z,100.00
2022-12-05T05:28:02.544Z,100.00
2022-12-05T05:29:05.922Z,100.00
2022-12-05T05:30:08.979Z,100.00
2022-12-05T05:31:11.427Z,100.00
2022-12-05T05:32:15.392Z,100.00
2022-12-05T05:33:17.828Z,100.00
2022-12-05T05:34:19.689Z,100.00
2022-12-05T05:35:23.421Z,100.00
2022-12-05T05:36:27.551Z,100.00
2022-12-05T05:37:30.680Z,100.00
2022-12-05T05:38:39.351Z,100.00
2022-12-05T05:39:41.181Z,100.00
2022-12-05T05:40:42.977Z,100.00
2022-12-05T05:43:00.580Z,100.00
2022-12-05T05:44:02.806Z,100.00
2022-12-05T05:45:04.795Z,100.00
2022-12-05T05:46:06.604Z,100.00
2022-12-05T05:47:11.145Z,100.00
2022-12-05T05:48:14.312Z,100.00
2022-12-05T05:49:16.734Z,100.00
2022-12-05T05:50:21.722Z,100.00
2022-12-05T05:51:28.090Z,100.00
2022-12-05T05:52:34.534Z,100.00
2022-12-05T05:53:36.870Z,100.00
2022-12-05T05:54:38.644Z,100.00
2022-12-05T05:55:42.943Z,100.00
2022-12-05T05:56:44.962Z,100.00
2022-12-05T05:57:46.959Z,100.00
2022-12-05T05:58:55.070Z,100.00
2022-12-05T05:59:57.416Z,100.00
2022-12-05T06:01:07.993Z,100.00
2022-12-05T06:02:09.992Z,100.00
2022-12-05T06:03:14.755Z,100.00
2022-12-05T06:04:16.763Z,100.00
2022-12-05T06:05:18.634Z,100.00
2022-12-05T06:06:21.715Z,100.00
2022-12-05T06:07:23.329Z,100.00
2022-12-05T06:08:25.188Z,100.00
2022-12-05T06:09:26.971Z,100.00
2022-12-05T06:10:31.475Z,100.00
2022-12-05T06:11:33.301Z,100.00
2022-12-05T06:12:35.102Z,100.00
2022-12-05T06:13:37.287Z,100.00
2022-12-05T06:14:39.126Z,100.00
2022-12-05T06:15:40.925Z,100.00
2022-12-05T06:16:42.624Z,100.00
2022-12-05T06:17:44.307Z,100.00
2022-12-05T06:18:46.030Z,100.00
2022-12-05T06:19:47.725Z,100.00
2022-12-05T06:20:56.613Z,100.00
2022-12-05T06:22:01.336Z,100.00
2022-12-05T06:23:03.178Z,100.00
2022-12-05T06:24:07.575Z,100.00
2022-12-05T06:25:12.352Z,100.00
2022-12-05T06:26:18.652Z,100.00
2022-12-05T06:27:22.906Z,100.00
2022-12-05T06:28:27.695Z,100.00
2022-12-05T06:29:34.211Z,100.00
2022-12-05T06:30:38.547Z,100.00
2022-12-05T06:31:42.100Z,100.00
2022-12-05T06:32:44.018Z,100.00
2022-12-05T06:33:46.540Z,100.00
2022-12-05T06:34:50.470Z,100.00
2022-12-05T06:36:02.598Z,100.00
2022-12-05T06:37:04.996Z,100.00
2022-12-05T06:38:07.944Z,100.00
2022-12-05T06:39:10.223Z,100.00
2022-12-05T06:40:13.167Z,100.00
2022-12-05T06:41:17.607Z,100.00
2022-12-05T06:42:22.191Z,100.00
2022-12-05T06:43:24.361Z,100.00
2022-12-05T06:44:27.553Z,100.00
2022-12-05T06:45:29.460Z,100.00
2022-12-05T06:46:31.424Z,100.00
2022-12-05T06:47:33.337Z,100.00
2022-12-05T06:48:35.647Z,100.00
2022-12-05T06:49:38.265Z,100.00
2022-12-05T06:50:40.753Z,100.00
2022-12-05T06:51:42.424Z,100.00
2022-12-05T06:52:44.352Z,100.00
2022-12-05T06:53:46.263Z,100.00
2022-12-05T06:54:48.084Z,100.00
2022-12-05T06:56:00.818Z,100.00
2022-12-05T06:57:02.396Z,100.00
2022-12-05T06:58:04.023Z,100.00
2022-12-05T06:59:06.664Z,100.00
2022-12-05T07:00:28.632Z,100.00
2022-12-05T07:01:39.539Z,100.00
2022-12-05T07:02:42.136Z,100.00
2022-12-05T07:03:44.224Z,100.00
2022-12-05T07:04:45.976Z,100.00
2022-12-05T07:05:47.633Z,100.00
2022-12-05T07:06:51.003Z,100.00
2022-12-05T07:07:55.739Z,100.00
2022-12-05T07:08:57.638Z,100.00
2022-12-05T07:09:59.471Z,100.00
2022-12-05T07:11:02.553Z,100.00
2022-12-05T07:12:04.508Z,100.00
2022-12-05T07:13:10.077Z,100.00
2022-12-05T07:14:39.052Z,100.00
2022-12-05T07:15:38.892Z,100.00
2022-12-05T07:16:40.829Z,100.00
2022-12-05T07:17:42.527Z,100.00
2022-12-05T07:18:44.114Z,100.00
2022-12-05T07:19:48.915Z,100.00
2022-12-05T07:21:11.779Z,100.00
2022-12-05T07:22:16.147Z,100.00
2022-12-05T07:23:18.168Z,100.00
2022-12-05T07:24:19.883Z,100.00
2022-12-05T07:25:23.012Z,100.00
2022-12-05T07:26:25.084Z,100.00
2022-12-05T07:27:27.888Z,100.00
2022-12-05T07:28:30.077Z,100.00
2022-12-05T07:29:31.992Z,100.00
2022-12-05T07:30:34.034Z,100.00
2022-12-05T07:31:37.177Z,100.00
2022-12-05T07:32:41.535Z,100.00
2022-12-05T07:33:43.250Z,100.00
2022-12-05T07:34:44.979Z,100.00
2022-12-05T07:35:49.259Z,100.00
2022-12-05T07:36:50.942Z,100.00
2022-12-05T07:37:55.240Z,100.00
2022-12-05T07:39:00.782Z,100.00
2022-12-05T07:40:02.856Z,100.00
2022-12-05T07:41:12.824Z,100.00
2022-12-05T07:42:14.976Z,100.00
2022-12-05T07:43:16.572Z,100.00
2022-12-05T07:44:18.268Z,100.00
2022-12-05T07:45:20.906Z,100.00
2022-12-05T07:46:23.764Z,100.00
2022-12-05T07:47:25.527Z,100.00
2022-12-05T07:48:27.333Z,100.00
2022-12-05T07:49:29.797Z,100.00
2022-12-05T07:50:31.467Z,100.00
2022-12-05T07:51:33.694Z,100.00
2022-12-05T07:52:35.479Z,100.00
2022-12-05T07:53:38.383Z,100.00
2022-12-05T07:54:40.144Z,100.00
2022-12-05T07:55:41.855Z,100.00
2022-12-05T07:56:47.741Z,100.00
2022-12-05T07:57:49.990Z,100.00
2022-12-05T07:58:51.607Z,100.00
2022-12-05T07:59:54.738Z,100.00
2022-12-05T08:00:57.297Z,100.00
2022-12-05T08:01:58.982Z,100.00
2022-12-05T08:03:03.249Z,100.00
2022-12-05T08:04:05.095Z,100.00
2022-12-05T08:05:07.251Z,100.00
2022-12-05T08:06:12.573Z,100.00
2022-12-05T08:07:14.540Z,100.00
2022-12-05T08:08:16.361Z,100.00
2022-12-05T08:09:18.080Z,100.00
2022-12-05T08:10:22.491Z,100.00
2022-12-05T08:11:28.916Z,100.00
2022-12-05T08:12:30.615Z,100.00
2022-12-05T08:13:35.111Z,100.00
2022-12-05T08:14:36.757Z,100.00
2022-12-05T08:15:38.706Z,100.00
2022-12-05T08:16:40.557Z,100.00
2022-12-05T08:17:42.294Z,100.00
2022-12-05T08:18:44.541Z,100.00
2022-12-05T08:19:46.279Z,100.00
2022-12-05T08:20:48.184Z,100.00
2022-12-05T08:21:49.967Z,100.00
2022-12-05T08:22:53.676Z,100.00
2022-12-05T08:23:55.964Z,100.00
2022-12-05T08:24:57.656Z,100.00
2022-12-05T08:26:03.606Z,100.00
2022-12-05T08:27:06.427Z,100.00
2022-12-05T08:28:08.142Z,100.00
2022-12-05T08:29:12.562Z,100.00
2022-12-05T08:30:15.018Z,100.00
2022-12-05T08:31:19.536Z,100.00
2022-12-05T08:32:25.192Z,100.00
2022-12-05T08:33:26.930Z,100.00
2022-12-05T08:34:28.744Z,100.00
2022-12-05T08:35:30.379Z,100.00
2022-12-05T08:36:32.584Z,100.00
2022-12-05T08:37:34.375Z,100.00
2022-12-05T08:38:36.894Z,100.00
2022-12-05T08:39:41.498Z,100.00
2022-12-05T08:40:43.423Z,100.00
2022-12-05T08:41:46.907Z,100.00
2022-12-05T08:42:48.611Z,100.00
2022-12-05T08:43:50.346Z,100.00
2022-12-05T08:44:52.187Z,100.00
2022-12-05T08:45:54.104Z,100.00
2022-12-05T08:46:59.165Z,100.00
2022-12-05T08:48:01.010Z,100.00
2022-12-05T08:49:04.283Z,100.00
2022-12-05T08:50:07.057Z,100.00
2022-12-05T08:51:12.072Z,100.00
2022-12-05T08:52:13.695Z,100.00
2022-12-05T08:53:15.891Z,100.00
2022-12-05T08:54:18.246Z,100.00
2022-12-05T08:55:20.002Z,100.00
2022-12-05T08:56:27.367Z,100.00
2022-12-05T08:57:30.596Z,100.00
2022-12-05T08:58:32.776Z,100.00
2022-12-05T08:59:35.409Z,100.00
2022-12-05T09:00:37.495Z,100.00
2022-12-05T09:01:39.905Z,100.00
2022-12-05T09:02:41.948Z,100.00
2022-12-05T09:03:47.857Z,100.00
2022-12-05T09:04:53.986Z,100.00
2022-12-05T09:06:05.844Z,100.00
2022-12-05T09:07:08.440Z,100.00
2022-12-05T09:08:10.432Z,100.00
2022-12-05T09:09:12.689Z,100.00
2022-12-05T09:10:14.340Z,100.00
2022-12-05T09:11:19.182Z,100.00
2022-12-05T09:12:20.957Z,100.00
2022-12-05T09:13:22.737Z,100.00
2022-12-05T09:14:24.840Z,100.00
2022-12-05T09:15:26.813Z,100.00
2022-12-05T09:16:37.529Z,100.00
2022-12-05T09:17:40.829Z,100.00
2022-12-05T09:18:43.732Z,100.00
2022-12-05T09:19:45.659Z,100.00
2022-12-05T09:20:47.416Z,100.00
2022-12-05T09:21:49.478Z,100.00
2022-12-05T09:22:53.088Z,100.00
2022-12-05T09:23:55.477Z,100.00
2022-12-05T09:24:57.461Z,100.00
2022-12-05T09:26:02.438Z,100.00
2022-12-05T09:27:04.091Z,100.00
2022-12-05T09:28:05.758Z,100.00
2022-12-05T09:29:16.282Z,100.00
2022-12-05T09:30:18.949Z,100.00
2022-12-05T09:31:24.429Z,100.00
2022-12-05T09:32:28.867Z,100.00
2022-12-05T09:33:32.293Z,100.00
2022-12-05T09:34:35.029Z,100.00
2022-12-05T09:35:40.592Z,100.00
2022-12-05T09:36:43.055Z,100.00
2022-12-05T09:37:44.780Z,100.00
2022-12-05T09:38:47.200Z,100.00
2022-12-05T09:39:49.136Z,100.00
2022-12-05T09:41:04.554Z,100.00
2022-12-05T09:42:08.004Z,100.00
2022-12-05T09:43:45.404Z,100.00
2022-12-05T09:45:05.979Z,100.00
2022-12-05T09:46:35.428Z,100.00
2022-12-05T09:47:59.330Z,100.00
2022-12-05T09:49:04.502Z,100.00
2022-12-05T09:50:14.999Z,100.00
2022-12-05T09:51:19.666Z,100.00
2022-12-05T09:52:41.472Z,100.00
2022-12-05T09:53:44.619Z,100.00
2022-12-05T09:54:47.544Z,100.00
2022-12-05T09:56:06.674Z,100.00
2022-12-05T09:57:11.212Z,100.00
2022-12-05T09:58:41.200Z,100.00
2022-12-05T09:59:43.133Z,100.00
2022-12-05T10:00:45.188Z,100.00
2022-12-05T10:01:49.925Z,100.00
2022-12-05T10:03:10.304Z,100.00
2022-12-05T10:04:35.067Z,100.00
2022-12-05T10:06:11.788Z,100.00
2022-12-05T10:07:25.478Z,100.00
2022-12-05T10:08:33.670Z,100.00
2022-12-05T10:10:17.015Z,100.00
2022-12-05T10:11:34.828Z,100.00
2022-12-05T10:13:04.050Z,100.00
2022-12-05T10:14:15.988Z,100.00
2022-12-05T10:15:37.779Z,100.00
2022-12-05T10:16:55.205Z,100.00
2022-12-05T10:18:03.686Z,100.00
2022-12-05T10:19:17.310Z,100.00
2022-12-05T10:20:51.809Z,100.00
2022-12-05T10:22:20.109Z,100.00
2022-12-05T10:24:05.768Z,100.00
2022-12-05T10:25:14.706Z,100.00
2022-12-05T10:26:24.167Z,100.00
2022-12-05T10:27:43.044Z,100.00
2022-12-05T10:29:01.150Z,100.00
2022-12-05T10:30:25.900Z,100.00
2022-12-05T10:31:38.210Z,100.00
2022-12-05T10:32:57.015Z,100.00
2022-12-05T10:34:13.999Z,100.00
2022-12-05T10:35:37.156Z,100.00
2022-12-05T10:36:54.950Z,100.00
2022-12-05T10:38:05.777Z,100.00
2022-12-05T10:39:26.869Z,100.00
2022-12-05T10:42:51.661Z,100.00
2022-12-05T10:45:55.206Z,100.00
2022-12-05T10:47:12.370Z,100.00
2022-12-05T10:48:52.748Z,100.00
2022-12-05T10:50:39.552Z,100.00
2022-12-05T10:53:27.334Z,100.00
2022-12-05T10:54:33.133Z,100.00
2022-12-05T10:55:40.510Z,100.00
2022-12-05T10:56:48.122Z,100.00
2022-12-05T10:57:53.282Z,100.00
2022-12-05T10:58:57.566Z,100.00
2022-12-05T11:00:13.623Z,100.00
2022-12-05T11:01:16.911Z,100.00
2022-12-05T11:02:32.210Z,100.00
2022-12-05T11:03:40.646Z,100.00
2022-12-05T11:04:45.551Z,100.00
2022-12-05T11:05:51.002Z,100.00
2022-12-05T11:06:55.561Z,100.00
2022-12-05T11:07:59.886Z,100.00
2022-12-05T11:09:47.284Z,100.00
2022-12-05T11:10:49.848Z,100.00
2022-12-05T11:12:20.905Z,100.00
2022-12-05T11:13:26.885Z,100.00
2022-12-05T11:14:30.060Z,100.00
2022-12-05T11:15:33.561Z,100.00
2022-12-05T11:16:38.527Z,100.00
2022-12-05T11:17:40.615Z,99.23
2022-12-05T11:18:44.809Z,100.00
2022-12-05T11:19:46.513Z,100.00
2022-12-05T11:20:48.288Z,100.00
2022-12-05T11:21:50.838Z,100.00
2022-12-05T11:22:55.754Z,100.00
2022-12-05T11:23:59.217Z,100.00
2022-12-05T11:25:01.566Z,100.00
2022-12-05T11:26:04.029Z,100.00
2022-12-05T11:27:26.333Z,100.00
2022-12-05T11:28:34.235Z,100.00
2022-12-05T11:29:38.549Z,100.00
2022-12-05T11:30:40.534Z,100.00
2022-12-05T11:31:52.396Z,100.00
2022-12-05T11:33:29.198Z,99.54
2022-12-05T11:34:49.620Z,93.67
2022-12-05T11:36:17.572Z,97.46
2022-12-05T11:37:31.136Z,91.13
2022-12-05T11:38:35.016Z,94.43
2022-12-05T11:39:36.675Z,96.62
2022-12-05T11:40:49.772Z,98.42
2022-12-05T11:42:03.960Z,98.46
2022-12-05T11:43:08.638Z,94.92
2022-12-05T11:44:29.275Z,94.90
2022-12-05T11:46:05.045Z,95.96
2022-12-05T11:47:28.870Z,94.16
2022-12-05T11:48:52.628Z,93.37
2022-12-05T11:50:13.704Z,96.39
2022-12-05T11:51:22.161Z,97.63
2022-12-05T11:55:04.524Z,97.96
2022-12-05T11:56:33.810Z,100.00
2022-12-05T11:58:00.806Z,100.00
2022-12-05T11:59:50.260Z,100.00
2022-12-05T12:01:07.719Z,100.00
2022-12-05T12:02:21.485Z,100.00
2022-12-05T12:03:35.554Z,100.00
2022-12-05T12:05:06.485Z,100.00
2022-12-05T12:06:36.779Z,100.00
2022-12-05T12:07:50.333Z,100.00
2022-12-05T12:09:10.747Z,100.00
2022-12-05T12:10:31.305Z,100.00
2022-12-05T12:11:53.451Z,100.00
2022-12-05T12:13:01.165Z,100.00
2022-12-05T12:14:57.239Z,100.00
2022-12-05T12:16:28.130Z,100.00
2022-12-05T12:17:44.855Z,100.00
2022-12-05T12:18:52.991Z,100.00
2022-12-05T12:20:28.407Z,100.00
2022-12-05T12:22:04.884Z,97.99
2022-12-05T12:23:40.818Z,98.33
2022-12-05T12:24:56.812Z,94.41
2022-12-05T12:26:12.029Z,93.92
2022-12-05T12:27:27.794Z,93.62
2022-12-05T12:28:52.216Z,91.21
2022-12-05T12:30:10.810Z,92.12
2022-12-05T12:31:12.883Z,95.51
2022-12-05T12:32:27.444Z,97.66
2022-12-05T12:33:51.155Z,97.16
2022-12-05T12:35:28.195Z,97.24
2022-12-05T12:36:53.989Z,99.77
2022-12-05T12:38:14.259Z,98.17
2022-12-05T12:39:43.826Z,98.48
2022-12-05T12:41:17.714Z,98.99
2022-12-05T12:42:32.519Z,99.41
2022-12-05T12:43:54.689Z,98.33
2022-12-05T12:45:39.569Z,98.30
2022-12-05T12:47:26.373Z,96.90
2022-12-05T12:49:02.904Z,96.62
2022-12-05T12:50:29.485Z,96.02
2022-12-05T12:51:33.580Z,98.10
2022-12-05T12:53:06.090Z,98.59
2022-12-05T12:54:54.824Z,100.00
2022-12-05T12:56:20.193Z,99.44
2022-12-05T12:57:43.908Z,98.07
2022-12-05T12:59:11.133Z,98.05
2022-12-05T13:00:21.767Z,96.98
2022-12-05T13:01:26.400Z,97.63
2022-12-05T13:02:47.817Z,99.44
2022-12-05T13:03:55.597Z,100.00
2022-12-05T13:05:29.417Z,100.00
2022-12-05T13:06:50.120Z,100.00
2022-12-05T13:07:57.992Z,100.00
2022-12-05T13:09:06.189Z,100.00
2022-12-05T13:10:40.960Z,100.00
2022-12-05T13:11:45.740Z,100.00
2022-12-05T13:12:48.999Z,100.00
2022-12-05T13:13:55.302Z,100.00
2022-12-05T13:15:05.190Z,100.00
2022-12-05T13:16:08.833Z,100.00
2022-12-05T13:17:19.310Z,100.00
2022-12-05T13:18:23.799Z,100.00
2022-12-05T13:19:42.996Z,100.00
2022-12-05T13:20:48.235Z,100.00
2022-12-05T13:21:50.581Z,100.00
2022-12-05T13:22:56.419Z,100.00
2022-12-05T13:24:03.422Z,100.00
2022-12-05T13:25:05.856Z,100.00
2022-12-05T13:26:10.887Z,100.00
2022-12-05T13:27:25.442Z,100.00
2022-12-05T13:28:35.935Z,100.00
2022-12-05T13:29:48.810Z,100.00
2022-12-05T13:31:05.978Z,100.00
2022-12-05T13:32:25.897Z,100.00
2022-12-05T13:33:35.879Z,100.00
2022-12-05T13:34:46.163Z,100.00
2022-12-05T13:36:07.110Z,100.00
2022-12-05T13:37:47.915Z,100.00
2022-12-05T13:39:09.233Z,100.00
2022-12-05T13:40:45.104Z,100.00
2022-12-05T13:42:12.171Z,100.00
2022-12-05T13:43:18.893Z,100.00
2022-12-05T13:44:33.335Z,100.00
2022-12-05T13:45:35.536Z,100.00
2022-12-05T13:46:40.302Z,100.00
2022-12-05T13:48:00.775Z,100.00
2022-12-05T13:49:17.213Z,100.00
2022-12-05T13:50:29.678Z,100.00
2022-12-05T13:51:36.153Z,100.00
2022-12-05T13:53:02.138Z,100.00
2022-12-05T13:54:19.434Z,100.00
2022-12-05T13:55:25.123Z,100.00
2022-12-05T13:56:46.767Z,100.00
2022-12-05T13:57:54.659Z,100.00
2022-12-05T13:58:58.298Z,100.00
2022-12-05T14:00:09.717Z,100.00
2022-12-05T14:01:51.905Z,100.00
2022-12-05T14:02:59.574Z,100.00
2022-12-05T14:04:04.604Z,100.00
2022-12-05T14:05:38.074Z,100.00
2022-12-05T14:07:00.142Z,100.00
2022-12-05T14:08:31.644Z,100.00
2022-12-05T14:09:51.080Z,100.00
2022-12-05T14:10:53.091Z,100.00
2022-12-05T14:12:10.269Z,100.00
2022-12-05T14:13:15.333Z,100.00
2022-12-05T14:14:55.893Z,100.00
2022-12-05T14:16:25.544Z,100.00
2022-12-05T14:17:32.525Z,100.00
2022-12-05T14:18:46.460Z,100.00
2022-12-05T14:20:00.363Z,100.00
2022-12-05T14:21:09.032Z,100.00
2022-12-05T14:22:39.946Z,100.00
2022-12-05T14:23:53.163Z,100.00
2022-12-05T14:25:10.564Z,100.00
2022-12-05T14:26:38.365Z,100.00
2022-12-05T14:27:41.602Z,100.00
2022-12-05T14:28:58.591Z,100.00
2022-12-05T14:30:05.475Z,100.00
2022-12-05T14:31:30.482Z,100.00
2022-12-05T14:32:38.865Z,100.00
2022-12-05T14:33:41.411Z,100.00
2022-12-05T14:34:54.778Z,100.00